sensor_id;sensor_type;location;lat;lon;timestamp;pressure;altitude;pressure_sealevel;temperature
15575;BMP180;7888;46.748;8.102;2023-09-19T15:41:14;94138.00;;;27.90
15575;BMP180;7888;46.748;8.102;2023-09-19T15:43:40;94132.00;;;28.00
15575;BMP180;7888;46.748;8.102;2023-09-19T15:46:06;94138.00;;;28.10
15575;BMP180;7888;46.748;8.102;2023-09-19T15:48:32;94123.00;;;28.10
15575;BMP180;7888;46.748;8.102;2023-09-19T15:51:03;94141.00;;;28.10
15575;BMP180;7888;46.748;8.102;2023-09-19T15:53:46;94136.00;;;28.20
15575;BMP180;7888;46.748;8.102;2023-09-19T15:56:13;94136.00;;;28.30
15575;BMP180;7888;46.748;8.102;2023-09-19T15:58:47;94136.00;;;28.30
15575;BMP180;7888;46.748;8.102;2023-09-19T16:01:14;94148.00;;;28.40
15575;BMP180;7888;46.748;8.102;2023-09-19T16:03:45;94137.00;;;28.30
15575;BMP180;7888;46.748;8.102;2023-09-19T16:06:20;94135.00;;;28.30
15575;BMP180;7888;46.748;8.102;2023-09-19T16:08:50;94141.00;;;28.40
15575;BMP180;7888;46.748;8.102;2023-09-19T16:11:18;94136.00;;;28.40
15575;BMP180;7888;46.748;8.102;2023-09-19T16:13:48;94126.00;;;28.40
15575;BMP180;7888;46.748;8.102;2023-09-19T16:16:15;94137.00;;;28.30
15575;BMP180;7888;46.748;8.102;2023-09-19T16:18:54;94144.00;;;28.30
15575;BMP180;7888;46.748;8.102;2023-09-19T16:21:33;94137.00;;;28.30
15575;BMP180;7888;46.748;8.102;2023-09-19T16:24:00;94143.00;;;28.20
15575;BMP180;7888;46.748;8.102;2023-09-19T16:26:28;94143.00;;;28.10
15575;BMP180;7888;46.748;8.102;2023-09-19T16:28:56;94138.00;;;28.00
15575;BMP180;7888;46.748;8.102;2023-09-19T16:31:27;94131.00;;;28.00
15575;BMP180;7888;46.748;8.102;2023-09-19T16:33:53;94138.00;;;27.90
15575;BMP180;7888;46.748;8.102;2023-09-19T16:36:20;94144.00;;;27.90
15575;BMP180;7888;46.748;8.102;2023-09-19T16:38:49;94148.00;;;27.80
15575;BMP180;7888;46.748;8.102;2023-09-19T16:41:16;94143.00;;;27.80
15575;BMP180;7888;46.748;8.102;2023-09-19T16:43:42;94139.00;;;27.70
15575;BMP180;7888;46.748;8.102;2023-09-19T16:46:10;94143.00;;;27.70
15575;BMP180;7888;46.748;8.102;2023-09-19T16:48:39;94153.00;;;27.60
15575;BMP180;7888;46.748;8.102;2023-09-19T16:51:09;94150.00;;;27.60
15575;BMP180;7888;46.748;8.102;2023-09-19T16:53:36;94146.00;;;27.60
15575;BMP180;7888;46.748;8.102;2023-09-19T16:56:05;94150.00;;;27.50
15575;BMP180;7888;46.748;8.102;2023-09-19T16:58:40;94163.00;;;27.40
15575;BMP180;7888;46.748;8.102;2023-09-19T17:01:09;94158.00;;;27.40
15575;BMP180;7888;46.748;8.102;2023-09-19T17:03:37;94162.00;;;27.30
15575;BMP180;7888;46.748;8.102;2023-09-19T17:06:13;94150.00;;;27.20
15575;BMP180;7888;46.748;8.102;2023-09-19T17:08:42;94147.00;;;27.20
15575;BMP180;7888;46.748;8.102;2023-09-19T17:11:13;94146.00;;;27.20
15575;BMP180;7888;46.748;8.102;2023-09-19T17:13:40;94144.00;;;27.10
15575;BMP180;7888;46.748;8.102;2023-09-19T17:16:09;94149.00;;;27.00
15575;BMP180;7888;46.748;8.102;2023-09-19T17:18:38;94157.00;;;27.00
15575;BMP180;7888;46.748;8.102;2023-09-19T17:21:05;94155.00;;;26.90
15575;BMP180;7888;46.748;8.102;2023-09-19T17:23:33;94143.00;;;26.90
15575;BMP180;7888;46.748;8.102;2023-09-19T17:26:04;94156.00;;;26.80
15575;BMP180;7888;46.748;8.102;2023-09-19T17:28:32;94151.00;;;26.70
15575;BMP180;7888;46.748;8.102;2023-09-19T17:31:00;94155.00;;;26.60
15575;BMP180;7888;46.748;8.102;2023-09-19T17:33:27;94156.00;;;26.60
15575;BMP180;7888;46.748;8.102;2023-09-19T17:38:36;94159.00;;;26.40
15575;BMP180;7888;46.748;8.102;2023-09-19T17:41:06;94159.00;;;26.30
15575;BMP180;7888;46.748;8.102;2023-09-19T17:43:36;94164.00;;;26.30
15575;BMP180;7888;46.748;8.102;2023-09-19T17:46:15;94163.00;;;26.20
15575;BMP180;7888;46.748;8.102;2023-09-19T17:48:43;94161.00;;;26.20
15575;BMP180;7888;46.748;8.102;2023-09-19T17:51:09;94163.00;;;26.10
15575;BMP180;7888;46.748;8.102;2023-09-19T17:53:41;94179.00;;;26.10
15575;BMP180;7888;46.748;8.102;2023-09-19T17:56:09;94167.00;;;26.00
15575;BMP180;7888;46.748;8.102;2023-09-19T17:58:36;94185.00;;;26.00
15575;BMP180;7888;46.748;8.102;2023-09-19T18:01:13;94184.00;;;25.90
15575;BMP180;7888;46.748;8.102;2023-09-19T18:03:39;94173.00;;;25.80
15575;BMP180;7888;46.748;8.102;2023-09-19T18:06:10;94179.00;;;25.80
15575;BMP180;7888;46.748;8.102;2023-09-19T18:08:37;94182.00;;;25.70
15575;BMP180;7888;46.748;8.102;2023-09-19T18:11:04;94176.00;;;25.60
15575;BMP180;7888;46.748;8.102;2023-09-19T18:13:30;94177.00;;;25.60
15575;BMP180;7888;46.748;8.102;2023-09-19T18:15:56;94177.00;;;25.50
15575;BMP180;7888;46.748;8.102;2023-09-19T18:18:25;94181.00;;;25.40
15575;BMP180;7888;46.748;8.102;2023-09-19T18:20:51;94181.00;;;25.40
15575;BMP180;7888;46.748;8.102;2023-09-19T18:23:17;94178.00;;;25.40
15575;BMP180;7888;46.748;8.102;2023-09-19T18:25:44;94181.00;;;25.30
15575;BMP180;7888;46.748;8.102;2023-09-19T18:28:12;94169.00;;;25.20
15575;BMP180;7888;46.748;8.102;2023-09-19T18:30:38;94182.00;;;25.20
15575;BMP180;7888;46.748;8.102;2023-09-19T18:33:04;94183.00;;;25.10
15575;BMP180;7888;46.748;8.102;2023-09-19T18:35:33;94181.00;;;25.10
15575;BMP180;7888;46.748;8.102;2023-09-19T18:38:00;94181.00;;;25.00
15575;BMP180;7888;46.748;8.102;2023-09-19T18:40:26;94187.00;;;25.00
15575;BMP180;7888;46.748;8.102;2023-09-19T18:42:52;94169.00;;;24.90
15575;BMP180;7888;46.748;8.102;2023-09-19T18:45:18;94184.00;;;24.90
15575;BMP180;7888;46.748;8.102;2023-09-19T18:47:46;94180.00;;;24.80
15575;BMP180;7888;46.748;8.102;2023-09-19T18:50:12;94186.00;;;24.80
15575;BMP180;7888;46.748;8.102;2023-09-19T18:52:39;94185.00;;;24.70
15575;BMP180;7888;46.748;8.102;2023-09-19T18:55:11;94191.00;;;24.60
15575;BMP180;7888;46.748;8.102;2023-09-19T18:57:41;94196.00;;;24.60
15575;BMP180;7888;46.748;8.102;2023-09-19T19:00:08;94195.00;;;24.50
15575;BMP180;7888;46.748;8.102;2023-09-19T19:02:36;94192.00;;;24.50
15575;BMP180;7888;46.748;8.102;2023-09-19T19:05:06;94200.00;;;24.40
15575;BMP180;7888;46.748;8.102;2023-09-19T19:07:34;94199.00;;;24.40
15575;BMP180;7888;46.748;8.102;2023-09-19T19:10:02;94200.00;;;24.30
15575;BMP180;7888;46.748;8.102;2023-09-19T19:12:31;94200.00;;;24.30
15575;BMP180;7888;46.748;8.102;2023-09-19T19:14:57;94203.00;;;24.20
15575;BMP180;7888;46.748;8.102;2023-09-19T19:17:27;94203.00;;;24.20
15575;BMP180;7888;46.748;8.102;2023-09-19T19:19:53;94202.00;;;24.10
15575;BMP180;7888;46.748;8.102;2023-09-19T19:22:20;94208.00;;;24.10
15575;BMP180;7888;46.748;8.102;2023-09-19T19:24:46;94204.00;;;24.00
15575;BMP180;7888;46.748;8.102;2023-09-19T19:27:12;94206.00;;;24.00
15575;BMP180;7888;46.748;8.102;2023-09-19T19:29:38;94201.00;;;23.90
15575;BMP180;7888;46.748;8.102;2023-09-19T19:32:04;94210.00;;;23.90
15575;BMP180;7888;46.748;8.102;2023-09-19T19:34:30;94204.00;;;23.80
15575;BMP180;7888;46.748;8.102;2023-09-19T19:36:59;94209.00;;;23.80
15575;BMP180;7888;46.748;8.102;2023-09-19T19:39:25;94208.00;;;23.80
15575;BMP180;7888;46.748;8.102;2023-09-19T19:41:51;94214.00;;;23.70
15575;BMP180;7888;46.748;8.102;2023-09-19T19:44:18;94215.00;;;23.70
15575;BMP180;7888;46.748;8.102;2023-09-19T19:46:47;94220.00;;;23.60
15575;BMP180;7888;46.748;8.102;2023-09-19T19:49:13;94215.00;;;23.60
15575;BMP180;7888;46.748;8.102;2023-09-19T19:51:40;94203.00;;;23.50
15575;BMP180;7888;46.748;8.102;2023-09-19T19:54:07;94220.00;;;23.50
15575;BMP180;7888;46.748;8.102;2023-09-19T19:56:35;94210.00;;;23.40
15575;BMP180;7888;46.748;8.102;2023-09-19T19:59:01;94215.00;;;23.40
15575;BMP180;7888;46.748;8.102;2023-09-19T20:01:28;94220.00;;;23.40
15575;BMP180;7888;46.748;8.102;2023-09-19T20:03:56;94224.00;;;23.40
15575;BMP180;7888;46.748;8.102;2023-09-19T20:06:22;94225.00;;;23.30
15575;BMP180;7888;46.748;8.102;2023-09-19T20:08:50;94223.00;;;23.30
15575;BMP180;7888;46.748;8.102;2023-09-19T20:11:17;94220.00;;;23.30
15575;BMP180;7888;46.748;8.102;2023-09-19T20:13:45;94218.00;;;23.20
15575;BMP180;7888;46.748;8.102;2023-09-19T20:16:11;94220.00;;;23.20
15575;BMP180;7888;46.748;8.102;2023-09-19T20:18:38;94223.00;;;23.20
15575;BMP180;7888;46.748;8.102;2023-09-19T20:21:09;94224.00;;;23.10
15575;BMP180;7888;46.748;8.102;2023-09-19T20:23:44;94221.00;;;23.00
15575;BMP180;7888;46.748;8.102;2023-09-19T20:26:10;94215.00;;;23.10
15575;BMP180;7888;46.748;8.102;2023-09-19T20:28:37;94225.00;;;23.00
15575;BMP180;7888;46.748;8.102;2023-09-19T20:31:10;94233.00;;;23.00
15575;BMP180;7888;46.748;8.102;2023-09-19T20:33:37;94216.00;;;22.90
15575;BMP180;7888;46.748;8.102;2023-09-19T20:36:05;94228.00;;;22.90
15575;BMP180;7888;46.748;8.102;2023-09-19T20:38:33;94234.00;;;22.90
15575;BMP180;7888;46.748;8.102;2023-09-19T20:40:59;94238.00;;;22.80
15575;BMP180;7888;46.748;8.102;2023-09-19T20:43:30;94236.00;;;22.80
15575;BMP180;7888;46.748;8.102;2023-09-19T20:45:56;94239.00;;;22.80
15575;BMP180;7888;46.748;8.102;2023-09-19T20:48:22;94236.00;;;22.80
15575;BMP180;7888;46.748;8.102;2023-09-19T20:50:47;94235.00;;;22.70
15575;BMP180;7888;46.748;8.102;2023-09-19T20:53:13;94234.00;;;22.70
15575;BMP180;7888;46.748;8.102;2023-09-19T20:55:39;94243.00;;;22.70
15575;BMP180;7888;46.748;8.102;2023-09-19T20:58:06;94240.00;;;22.70
15575;BMP180;7888;46.748;8.102;2023-09-19T21:00:32;94236.00;;;22.70
15575;BMP180;7888;46.748;8.102;2023-09-19T21:02:59;94234.00;;;22.70
15575;BMP180;7888;46.748;8.102;2023-09-19T21:05:25;94238.00;;;22.60
15575;BMP180;7888;46.748;8.102;2023-09-19T21:07:51;94223.00;;;22.60
15575;BMP180;7888;46.748;8.102;2023-09-19T21:10:17;94229.00;;;22.60
15575;BMP180;7888;46.748;8.102;2023-09-19T21:12:43;94228.00;;;22.60
15575;BMP180;7888;46.748;8.102;2023-09-19T21:15:10;94227.00;;;22.50
15575;BMP180;7888;46.748;8.102;2023-09-19T21:17:37;94229.00;;;22.50
15575;BMP180;7888;46.748;8.102;2023-09-19T21:20:10;94218.00;;;22.50
15575;BMP180;7888;46.748;8.102;2023-09-19T21:22:39;94223.00;;;22.50
15575;BMP180;7888;46.748;8.102;2023-09-19T21:25:06;94231.00;;;22.50
15575;BMP180;7888;46.748;8.102;2023-09-19T21:27:34;94223.00;;;22.50
15575;BMP180;7888;46.748;8.102;2023-09-19T21:30:01;94225.00;;;22.40
15575;BMP180;7888;46.748;8.102;2023-09-19T21:32:26;94222.00;;;22.40
15575;BMP180;7888;46.748;8.102;2023-09-19T21:34:52;94217.00;;;22.40
15575;BMP180;7888;46.748;8.102;2023-09-19T21:37:18;94224.00;;;22.40
15575;BMP180;7888;46.748;8.102;2023-09-19T21:39:44;94226.00;;;22.40
15575;BMP180;7888;46.748;8.102;2023-09-19T21:42:10;94216.00;;;22.40
15575;BMP180;7888;46.748;8.102;2023-09-19T21:44:36;94215.00;;;22.40
15575;BMP180;7888;46.748;8.102;2023-09-19T21:47:02;94220.00;;;22.30
15575;BMP180;7888;46.748;8.102;2023-09-19T21:49:28;94215.00;;;22.30
15575;BMP180;7888;46.748;8.102;2023-09-19T21:51:55;94215.00;;;22.30
15575;BMP180;7888;46.748;8.102;2023-09-19T21:54:21;94207.00;;;22.30
15575;BMP180;7888;46.748;8.102;2023-09-19T21:56:47;94214.00;;;22.30
15575;BMP180;7888;46.748;8.102;2023-09-19T21:59:14;94214.00;;;22.20
15575;BMP180;7888;46.748;8.102;2023-09-19T22:01:43;94214.00;;;22.20
15575;BMP180;7888;46.748;8.102;2023-09-19T22:04:08;94208.00;;;22.20
15575;BMP180;7888;46.748;8.102;2023-09-19T22:06:37;94214.00;;;22.20
15575;BMP180;7888;46.748;8.102;2023-09-19T22:09:03;94203.00;;;22.10
15575;BMP180;7888;46.748;8.102;2023-09-19T22:11:30;94218.00;;;22.10
15575;BMP180;7888;46.748;8.102;2023-09-19T22:13:56;94212.00;;;22.10
15575;BMP180;7888;46.748;8.102;2023-09-19T22:16:22;94210.00;;;22.10
15575;BMP180;7888;46.748;8.102;2023-09-19T22:18:48;94210.00;;;22.10
15575;BMP180;7888;46.748;8.102;2023-09-19T22:21:19;94211.00;;;22.10
15575;BMP180;7888;46.748;8.102;2023-09-19T22:23:48;94208.00;;;22.00
15575;BMP180;7888;46.748;8.102;2023-09-19T22:26:21;94209.00;;;22.00
15575;BMP180;7888;46.748;8.102;2023-09-19T22:28:53;94208.00;;;22.00
15575;BMP180;7888;46.748;8.102;2023-09-19T22:31:25;94206.00;;;22.00
15575;BMP180;7888;46.748;8.102;2023-09-19T22:34:02;94203.00;;;22.00
15575;BMP180;7888;46.748;8.102;2023-09-19T22:36:31;94206.00;;;22.00
15575;BMP180;7888;46.748;8.102;2023-09-19T22:39:04;94202.00;;;22.00
15575;BMP180;7888;46.748;8.102;2023-09-19T22:41:31;94203.00;;;22.00
15575;BMP180;7888;46.748;8.102;2023-09-19T22:43:58;94205.00;;;22.00
15575;BMP180;7888;46.748;8.102;2023-09-19T22:46:25;94202.00;;;22.00
15575;BMP180;7888;46.748;8.102;2023-09-19T22:48:54;94199.00;;;22.00
15575;BMP180;7888;46.748;8.102;2023-09-19T22:51:20;94201.00;;;22.00
15575;BMP180;7888;46.748;8.102;2023-09-19T22:53:50;94202.00;;;22.00
15575;BMP180;7888;46.748;8.102;2023-09-19T22:56:24;94211.00;;;22.00
15575;BMP180;7888;46.748;8.102;2023-09-19T22:58:51;94205.00;;;22.00
15575;BMP180;7888;46.748;8.102;2023-09-19T23:01:18;94202.00;;;22.00
15575;BMP180;7888;46.748;8.102;2023-09-19T23:04:00;94202.00;;;22.00
15575;BMP180;7888;46.748;8.102;2023-09-19T23:06:39;94200.00;;;22.00
15575;BMP180;7888;46.748;8.102;2023-09-19T23:09:05;94202.00;;;22.00
15575;BMP180;7888;46.748;8.102;2023-09-19T23:11:37;94202.00;;;22.00
15575;BMP180;7888;46.748;8.102;2023-09-19T23:14:04;94196.00;;;22.00
15575;BMP180;7888;46.748;8.102;2023-09-19T23:16:32;94193.00;;;22.00
15575;BMP180;7888;46.748;8.102;2023-09-19T23:19:02;94190.00;;;22.00
15575;BMP180;7888;46.748;8.102;2023-09-19T23:21:42;94185.00;;;22.00
15575;BMP180;7888;46.748;8.102;2023-09-19T23:24:13;94173.00;;;22.00
15575;BMP180;7888;46.748;8.102;2023-09-19T23:26:46;94171.00;;;22.00
15575;BMP180;7888;46.748;8.102;2023-09-19T23:29:17;94161.00;;;22.00
15575;BMP180;7888;46.748;8.102;2023-09-19T23:31:45;94163.00;;;22.00
15575;BMP180;7888;46.748;8.102;2023-09-19T23:34:12;94159.00;;;22.00
15575;BMP180;7888;46.748;8.102;2023-09-19T23:36:39;94153.00;;;22.00
15575;BMP180;7888;46.748;8.102;2023-09-19T23:39:06;94155.00;;;22.00
15575;BMP180;7888;46.748;8.102;2023-09-19T23:41:38;94163.00;;;21.90
15575;BMP180;7888;46.748;8.102;2023-09-19T23:44:07;94152.00;;;21.90
15575;BMP180;7888;46.748;8.102;2023-09-19T23:46:39;94148.00;;;21.90
15575;BMP180;7888;46.748;8.102;2023-09-19T23:49:09;94150.00;;;21.90
15575;BMP180;7888;46.748;8.102;2023-09-19T23:51:37;94149.00;;;21.90
15575;BMP180;7888;46.748;8.102;2023-09-19T23:54:05;94147.00;;;21.90
15575;BMP180;7888;46.748;8.102;2023-09-19T23:56:42;94149.00;;;21.80
15575;BMP180;7888;46.748;8.102;2023-09-19T23:59:11;94159.00;;;21.90
